createdAt,value
2022-08-12T00:00:52.642Z,23.75
2022-08-12T00:03:38.230Z,23.74
2022-08-12T00:06:24.256Z,23.71
2022-08-12T00:09:10.166Z,23.65
2022-08-12T00:11:57.315Z,23.59
2022-08-12T00:14:42.524Z,23.54
2022-08-12T00:17:27.817Z,23.50
2022-08-12T00:20:13.292Z,23.46
2022-08-12T00:22:59.207Z,23.41
2022-08-12T00:26:21.695Z,23.42
2022-08-12T00:29:02.297Z,23.38
2022-08-12T00:31:48.142Z,23.37
2022-08-12T00:34:33.831Z,23.34
2022-08-12T00:37:19.305Z,23.31
2022-08-12T00:40:10.758Z,23.28
2022-08-12T00:42:40.880Z,23.24
2022-08-12T00:45:11.411Z,23.23
2022-08-12T00:47:39.963Z,23.19
2022-08-12T00:50:17.633Z,23.17
2022-08-12T00:52:46.310Z,23.13
2022-08-12T00:55:14.692Z,23.10
2022-08-12T00:57:48.553Z,23.04
2022-08-12T01:00:21.536Z,22.98
2022-08-12T01:02:52.595Z,22.93
2022-08-12T01:05:40.342Z,22.93
2022-08-12T01:08:26.109Z,22.87
2022-08-12T01:11:13.686Z,22.83
2022-08-12T01:13:43.017Z,22.80
2022-08-12T01:16:12.383Z,22.75
2022-08-12T01:18:41.643Z,22.70
2022-08-12T01:21:16.646Z,22.65
2022-08-12T01:23:58.207Z,22.64
2022-08-12T01:26:27.569Z,22.60
2022-08-12T01:28:58.894Z,22.55
2022-08-12T01:31:29.950Z,22.49
2022-08-12T01:34:06.488Z,22.46
2022-08-12T01:36:57.705Z,22.44
2022-08-12T01:39:30.664Z,22.42
2022-08-12T01:42:05.257Z,22.38
2022-08-12T01:44:35.173Z,22.32
2022-08-12T01:47:19.188Z,22.28
2022-08-12T01:50:05.452Z,22.23
2022-08-12T01:52:43.407Z,22.22
2022-08-12T01:55:12.412Z,22.19
2022-08-12T01:57:57.880Z,22.19
2022-08-12T02:00:43.385Z,22.12
2022-08-12T02:03:23.759Z,22.10
2022-08-12T02:06:18.035Z,22.08
2022-08-12T02:09:06.475Z,22.00
2022-08-12T02:11:36.802Z,21.94
2022-08-12T02:14:32.319Z,21.89
2022-08-12T02:17:10.534Z,21.86
2022-08-12T02:20:01.946Z,21.82
2022-08-12T02:22:32.095Z,21.80
2022-08-12T02:25:08.421Z,21.80
2022-08-12T02:27:40.688Z,21.78
2022-08-12T02:30:11.460Z,21.78
2022-08-12T02:32:41.775Z,21.72
2022-08-12T02:35:14.893Z,21.70
2022-08-12T02:37:45.472Z,21.63
2022-08-12T02:40:15.047Z,21.63
2022-08-12T02:42:51.194Z,21.58
2022-08-12T02:45:28.344Z,21.53
2022-08-12T02:48:02.115Z,21.50
2022-08-12T02:50:34.968Z,21.46
2022-08-12T02:53:04.817Z,21.41
2022-08-12T02:55:36.550Z,21.33
2022-08-12T02:58:12.098Z,21.30
2022-08-12T03:00:44.515Z,21.27
2022-08-12T03:03:14.647Z,21.27
2022-08-12T03:05:49.710Z,21.24
2022-08-12T03:08:32.553Z,21.25
2022-08-12T03:11:11.996Z,21.25
2022-08-12T03:13:49.598Z,21.25
2022-08-12T03:16:19.478Z,21.22
2022-08-12T03:18:49.614Z,21.22
2022-08-12T03:22:03.807Z,21.17
2022-08-12T03:24:08.753Z,21.15
2022-08-12T03:26:37.782Z,21.11
2022-08-12T03:29:07.185Z,21.05
2022-08-12T03:31:36.385Z,20.91
2022-08-12T03:34:07.508Z,20.92
2022-08-12T03:36:39.082Z,20.87
2022-08-12T03:39:23.565Z,20.84
2022-08-12T03:42:14.347Z,20.83
2022-08-12T03:45:11.382Z,20.83
2022-08-12T03:48:05.580Z,20.78
2022-08-12T03:50:51.056Z,20.74
2022-08-12T03:53:45.483Z,20.68
2022-08-12T03:56:31.093Z,20.66
2022-08-12T03:59:17.630Z,20.59
2022-08-12T04:01:52.393Z,20.52
2022-08-12T04:04:23.537Z,20.43
2022-08-12T04:06:51.794Z,20.36
2022-08-12T04:09:21.557Z,20.39
2022-08-12T04:12:07.576Z,20.39
2022-08-12T04:14:35.999Z,20.39
2022-08-12T04:17:05.351Z,20.42
2022-08-12T04:19:34.554Z,20.37
2022-08-12T04:22:03.704Z,20.34
2022-08-12T04:24:34.973Z,20.30
2022-08-12T04:27:05.080Z,20.22
2022-08-12T04:30:29.581Z,20.16
2022-08-12T04:32:22.186Z,20.20
2022-08-12T04:34:51.892Z,20.24
2022-08-12T04:37:22.454Z,20.26
2022-08-12T04:39:50.913Z,20.30
2022-08-12T04:42:20.103Z,20.28
2022-08-12T04:44:48.412Z,20.26
2022-08-12T04:47:17.968Z,20.29
2022-08-12T04:49:48.120Z,20.26
2022-08-12T04:52:18.508Z,20.31
2022-08-12T04:54:47.511Z,20.30
2022-08-12T04:57:16.032Z,20.30
2022-08-12T04:59:47.850Z,20.33
2022-08-12T05:02:20.454Z,20.36
2022-08-12T05:04:50.729Z,20.38
2022-08-12T05:07:20.179Z,20.44
2022-08-12T05:09:59.469Z,20.47
2022-08-12T05:12:33.907Z,20.48
2022-08-12T05:15:01.707Z,20.51
2022-08-12T05:17:29.731Z,20.56
2022-08-12T05:19:58.158Z,20.61
2022-08-12T05:22:27.841Z,20.63
2022-08-12T05:24:55.939Z,20.67
2022-08-12T05:27:23.754Z,20.72
2022-08-12T05:30:06.758Z,20.78
2022-08-12T05:32:37.550Z,20.88
2022-08-12T05:35:08.096Z,20.96
2022-08-12T05:37:37.291Z,21.06
2022-08-12T05:40:10.849Z,21.13
2022-08-12T05:42:39.273Z,21.21
2022-08-12T05:45:08.575Z,21.29
2022-08-12T05:47:42.541Z,21.35
2022-08-12T05:50:22.171Z,21.42
2022-08-12T05:52:53.031Z,21.49
2022-08-12T05:55:24.161Z,21.56
2022-08-12T05:57:55.319Z,21.65
2022-08-12T06:00:25.481Z,21.71
2022-08-12T06:03:01.364Z,21.80
2022-08-12T06:05:29.529Z,21.87
2022-08-12T06:08:02.512Z,21.95
2022-08-12T06:10:32.933Z,22.03
2022-08-12T06:13:02.548Z,22.13
2022-08-12T06:15:32.179Z,22.20
2022-08-12T06:18:13.152Z,22.29
2022-08-12T06:20:43.842Z,22.35
2022-08-12T06:23:16.587Z,22.44
2022-08-12T06:25:46.511Z,22.53
2022-08-12T06:28:17.598Z,22.62
2022-08-12T06:30:57.296Z,22.68
2022-08-12T06:33:56.029Z,22.78
2022-08-12T06:36:24.998Z,22.89
2022-08-12T06:38:59.473Z,22.97
2022-08-12T06:42:30.637Z,23.07
2022-08-12T06:44:41.034Z,23.22
2022-08-12T06:47:08.796Z,23.30
2022-08-12T06:49:36.907Z,23.40
2022-08-12T06:52:07.378Z,23.49
2022-08-12T06:54:36.592Z,23.58
2022-08-12T06:58:05.419Z,23.68
2022-08-12T06:59:52.519Z,23.80
2022-08-12T07:02:22.780Z,23.92
2022-08-12T07:04:52.584Z,24.01
2022-08-12T07:07:20.466Z,24.15
2022-08-12T07:10:03.964Z,24.23
2022-08-12T07:12:36.828Z,24.33
2022-08-12T07:15:05.346Z,24.43
2022-08-12T07:17:37.806Z,24.55
2022-08-12T07:20:10.033Z,24.66
2022-08-12T07:22:39.069Z,24.73
2022-08-12T07:25:26.812Z,24.81
2022-08-12T07:27:55.164Z,24.91
2022-08-12T07:30:24.016Z,24.99
2022-08-12T07:32:52.259Z,25.05
2022-08-12T07:35:20.511Z,25.15
2022-08-12T07:37:50.454Z,25.23
2022-08-12T07:40:21.084Z,25.32
2022-08-12T07:42:49.607Z,25.43
2022-08-12T07:45:18.097Z,25.51
2022-08-12T07:47:45.902Z,25.60
2022-08-12T07:50:18.880Z,25.70
2022-08-12T07:52:49.502Z,25.79
2022-08-12T07:55:19.579Z,25.90
2022-08-12T07:57:53.316Z,26.01
2022-08-12T08:00:21.291Z,26.11
2022-08-12T08:02:54.207Z,26.19
2022-08-12T08:05:23.787Z,26.24
2022-08-12T08:07:53.274Z,26.31
2022-08-12T08:10:22.564Z,26.40
2022-08-12T08:12:56.034Z,26.47
2022-08-12T08:15:44.648Z,26.56
2022-08-12T08:18:26.620Z,26.63
2022-08-12T08:20:57.282Z,26.70
2022-08-12T08:23:55.791Z,26.75
2022-08-12T08:26:27.131Z,26.87
2022-08-12T08:28:55.050Z,26.98
2022-08-12T08:31:22.805Z,27.04
2022-08-12T08:34:09.117Z,27.12
2022-08-12T08:36:40.363Z,27.15
2022-08-12T08:39:11.604Z,27.20
2022-08-12T08:42:17.444Z,27.27
2022-08-12T08:44:46.785Z,27.35
2022-08-12T08:47:17.542Z,27.43
2022-08-12T08:49:45.626Z,27.50
2022-08-12T08:52:13.391Z,27.57
2022-08-12T08:55:01.164Z,27.66
2022-08-12T08:57:43.600Z,27.74
2022-08-12T09:00:19.689Z,27.79
2022-08-12T09:02:58.778Z,27.87
2022-08-12T09:05:27.944Z,27.96
2022-08-12T09:08:12.184Z,28.03
2022-08-12T09:10:55.229Z,28.10
2022-08-12T09:14:11.167Z,28.16
2022-08-12T09:16:23.156Z,28.23
2022-08-12T09:18:52.493Z,28.30
2022-08-12T09:21:20.665Z,28.38
2022-08-12T09:23:59.414Z,28.44
2022-08-12T09:26:45.803Z,28.42
2022-08-12T09:29:15.939Z,28.47
2022-08-12T09:32:04.137Z,28.61
2022-08-12T09:34:34.082Z,28.67
2022-08-12T09:37:19.353Z,28.70
2022-08-12T09:40:04.553Z,28.78
2022-08-12T09:43:16.153Z,28.82
2022-08-12T09:46:06.718Z,28.85
2022-08-12T09:48:35.119Z,28.89
2022-08-12T09:51:04.892Z,28.93
2022-08-12T09:53:45.795Z,29.01
2022-08-12T09:56:58.682Z,29.08
2022-08-12T10:00:17.092Z,29.15
2022-08-12T10:02:45.637Z,29.20
2022-08-12T10:05:00.471Z,29.27
2022-08-12T10:07:37.652Z,29.27
2022-08-12T10:10:22.969Z,29.27
2022-08-12T10:13:12.884Z,29.34
2022-08-12T10:16:01.512Z,29.39
2022-08-12T10:18:35.831Z,29.47
2022-08-12T10:21:07.474Z,29.51
2022-08-12T10:23:39.772Z,29.56
2022-08-12T10:26:37.054Z,29.66
2022-08-12T10:30:11.878Z,29.68
2022-08-12T10:32:22.108Z,29.66
2022-08-12T10:34:53.366Z,29.67
2022-08-12T10:37:23.681Z,29.73
2022-08-12T10:40:20.531Z,29.76
2022-08-12T10:43:03.638Z,29.78
2022-08-12T10:45:31.896Z,29.85
2022-08-12T10:48:19.150Z,29.92
2022-08-12T10:51:00.458Z,29.98
2022-08-12T10:53:45.195Z,30.02
2022-08-12T10:56:15.335Z,30.02
2022-08-12T10:58:46.028Z,30.08
2022-08-12T11:01:49.822Z,30.16
2022-08-12T11:04:22.741Z,30.20
2022-08-12T11:07:07.998Z,30.24
2022-08-12T11:10:00.752Z,30.32
2022-08-12T11:12:56.633Z,30.29
2022-08-12T11:15:24.414Z,30.37
2022-08-12T11:18:12.233Z,30.43
2022-08-12T11:20:48.043Z,30.49
2022-08-12T11:23:24.981Z,30.49
2022-08-12T11:26:06.824Z,30.51
2022-08-12T11:28:36.978Z,30.54
2022-08-12T11:31:14.118Z,30.61
2022-08-12T11:34:05.749Z,30.69
2022-08-12T11:36:30.943Z,30.71
2022-08-12T11:39:04.502Z,30.68
2022-08-12T11:41:33.555Z,30.77
2022-08-12T11:44:36.170Z,30.74
2022-08-12T11:46:55.146Z,30.69
2022-08-12T11:49:31.115Z,30.72
2022-08-12T11:51:59.893Z,30.76
2022-08-12T11:54:29.442Z,30.78
2022-08-12T11:56:59.874Z,30.87
2022-08-12T12:02:20.152Z,30.94
2022-08-12T12:04:52.921Z,30.96
2022-08-12T12:08:38.949Z,30.99
2022-08-12T12:10:13.955Z,30.98
2022-08-12T12:12:49.567Z,31.04
2022-08-12T12:15:25.227Z,31.05
2022-08-12T12:18:05.112Z,31.08
2022-08-12T12:20:32.922Z,31.10
2022-08-12T12:23:01.804Z,31.17
2022-08-12T12:26:06.482Z,31.10
2022-08-12T12:28:36.838Z,31.15
2022-08-12T12:31:15.162Z,31.23
2022-08-12T12:33:58.020Z,31.33
2022-08-12T12:36:29.908Z,31.40
2022-08-12T12:39:00.222Z,31.39
2022-08-12T12:42:42.141Z,31.40
2022-08-12T12:44:30.247Z,31.43
2022-08-12T12:47:28.804Z,31.30
2022-08-12T12:49:53.932Z,31.33
2022-08-12T12:52:27.014Z,31.31
2022-08-12T12:54:55.467Z,31.35
2022-08-12T12:57:36.075Z,31.36
2022-08-12T13:00:18.022Z,31.32
2022-08-12T13:02:54.309Z,31.34
2022-08-12T13:05:28.273Z,31.38
2022-08-12T13:08:00.757Z,31.40
2022-08-12T13:10:36.966Z,31.45
2022-08-12T13:14:07.706Z,31.47
2022-08-12T13:15:59.038Z,31.38
2022-08-12T13:18:28.821Z,31.40
2022-08-12T13:20:59.692Z,31.39
2022-08-12T13:23:35.965Z,31.50
2022-08-12T13:26:07.694Z,31.57
2022-08-12T13:28:45.628Z,31.43
2022-08-12T13:31:22.331Z,31.47
2022-08-12T13:34:34.646Z,31.49
2022-08-12T13:36:40.989Z,31.46
2022-08-12T13:39:09.312Z,31.53
2022-08-12T13:41:37.696Z,31.59
2022-08-12T13:44:10.735Z,31.55
2022-08-12T13:46:40.860Z,31.59
2022-08-12T13:49:11.485Z,31.53
2022-08-12T13:51:54.224Z,31.55
2022-08-12T13:54:22.070Z,31.61
2022-08-12T13:56:51.503Z,31.66
2022-08-12T13:59:24.633Z,31.69
2022-08-12T14:01:56.859Z,31.65
2022-08-12T14:04:24.819Z,31.65
2022-08-12T14:06:53.995Z,31.59
2022-08-12T14:09:22.113Z,31.52
2022-08-12T14:11:59.343Z,31.58
2022-08-12T14:14:31.284Z,31.62
2022-08-12T14:17:05.712Z,31.67
2022-08-12T14:19:48.753Z,31.63
2022-08-12T14:22:21.488Z,31.64
2022-08-12T14:24:54.266Z,31.63
2022-08-12T14:28:03.301Z,31.64
2022-08-12T14:30:28.797Z,31.65
2022-08-12T14:32:57.631Z,31.64
2022-08-12T14:35:25.371Z,31.65
2022-08-12T14:37:56.169Z,31.59
2022-08-12T14:40:28.185Z,31.65
2022-08-12T14:42:57.009Z,31.71
2022-08-12T14:45:44.584Z,31.67
2022-08-12T14:48:16.552Z,31.74
2022-08-12T14:51:03.307Z,31.75
2022-08-12T14:59:57.068Z,31.66
2022-08-12T15:02:20.858Z,31.62
2022-08-12T15:04:56.054Z,31.55
2022-08-12T15:07:33.319Z,31.58
2022-08-12T15:10:13.433Z,31.50
2022-08-12T15:12:41.656Z,31.51
2022-08-12T15:15:10.466Z,31.51
2022-08-12T15:17:40.502Z,31.55
2022-08-12T15:20:32.402Z,31.45
2022-08-12T15:22:58.101Z,31.30
2022-08-12T15:25:26.034Z,31.29
2022-08-12T15:28:03.972Z,31.27
2022-08-12T15:30:33.861Z,31.23
2022-08-12T15:33:12.577Z,31.16
2022-08-12T15:35:52.275Z,31.16
2022-08-12T15:38:25.304Z,31.15
2022-08-12T15:40:55.241Z,31.14
2022-08-12T15:44:15.670Z,31.14
2022-08-12T15:46:15.146Z,31.02
2022-08-12T15:48:47.461Z,30.93
2022-08-12T15:51:58.855Z,30.96
2022-08-12T15:54:33.104Z,31.01
2022-08-12T15:57:05.828Z,31.06
2022-08-12T16:00:04.536Z,31.07
2022-08-12T16:02:27.132Z,31.03
2022-08-12T16:04:58.649Z,31.02
2022-08-12T16:07:32.542Z,31.05
2022-08-12T16:10:08.304Z,30.97
2022-08-12T16:12:43.405Z,31.07
2022-08-12T16:15:24.995Z,31.05
2022-08-12T16:18:19.521Z,30.97
2022-08-12T16:20:46.517Z,30.91
2022-08-12T16:23:36.319Z,30.86
2022-08-12T16:26:14.183Z,30.88
2022-08-12T16:28:43.169Z,30.90
2022-08-12T16:31:18.618Z,30.91
2022-08-12T16:33:59.108Z,30.81
2022-08-12T16:36:30.525Z,30.78
2022-08-12T16:39:01.759Z,30.76
2022-08-12T16:41:33.521Z,30.76
2022-08-12T16:44:08.524Z,30.65
2022-08-12T16:46:37.674Z,30.59
2022-08-12T16:49:13.146Z,30.56
2022-08-12T16:51:46.673Z,30.63
2022-08-12T16:54:16.557Z,30.63
2022-08-12T16:56:54.513Z,30.66
2022-08-12T16:59:26.279Z,30.63
2022-08-12T17:01:59.078Z,30.62
2022-08-12T17:04:29.114Z,30.60
2022-08-12T17:06:58.562Z,30.56
2022-08-12T17:09:27.071Z,30.52
2022-08-12T17:12:08.900Z,30.48
2022-08-12T17:14:38.074Z,30.43
2022-08-12T17:17:18.578Z,30.44
2022-08-12T17:20:28.643Z,30.32
2022-08-12T17:22:56.011Z,30.32
2022-08-12T17:25:25.533Z,30.29
2022-08-12T17:27:58.977Z,30.25
2022-08-12T17:30:29.638Z,30.22
2022-08-12T17:33:02.678Z,30.19
2022-08-12T17:35:37.269Z,30.14
2022-08-12T17:38:13.623Z,30.10
2022-08-12T17:40:43.680Z,30.04
2022-08-12T17:43:56.784Z,30.06
2022-08-12T17:46:13.139Z,30.01
2022-08-12T17:48:54.926Z,30.00
2022-08-12T17:51:26.429Z,29.94
2022-08-12T17:54:10.790Z,29.94
2022-08-12T17:56:43.302Z,29.87
2022-08-12T17:59:12.331Z,29.82
2022-08-12T18:01:45.327Z,29.77
2022-08-12T18:04:22.413Z,29.75
2022-08-12T18:06:52.016Z,29.74
2022-08-12T18:09:24.371Z,29.74
2022-08-12T18:12:11.885Z,29.68
2022-08-12T18:14:41.487Z,29.62
2022-08-12T18:17:11.958Z,29.62
2022-08-12T18:20:05.625Z,29.58
2022-08-12T18:22:40.905Z,29.55
2022-08-12T18:26:11.418Z,29.50
2022-08-12T18:28:11.644Z,29.45
2022-08-12T18:30:53.014Z,29.38
2022-08-12T18:33:24.859Z,29.30
2022-08-12T18:35:55.498Z,29.24
2022-08-12T18:38:25.756Z,29.18
2022-08-12T18:41:21.723Z,29.11
2022-08-12T18:43:59.452Z,29.05
2022-08-12T18:46:33.223Z,29.04
2022-08-12T18:49:18.269Z,29.00
2022-08-12T18:51:55.535Z,28.96
2022-08-12T18:54:35.672Z,28.91
2022-08-12T18:57:16.654Z,28.83
2022-08-12T19:00:06.981Z,28.73
2022-08-12T19:02:40.654Z,28.64
2022-08-12T19:05:10.623Z,28.60
2022-08-12T19:08:00.147Z,28.54
2022-08-12T19:10:30.444Z,28.44
2022-08-12T19:13:23.143Z,28.39
2022-08-12T19:15:53.450Z,28.31
2022-08-12T19:18:22.120Z,28.23
2022-08-12T19:20:50.746Z,28.18
2022-08-12T19:23:21.287Z,28.12
2022-08-12T19:25:59.582Z,28.08
2022-08-12T19:28:35.461Z,28.00
2022-08-12T19:31:55.821Z,27.93
2022-08-12T19:34:56.480Z,27.84
2022-08-12T19:37:20.032Z,27.79
2022-08-12T19:40:09.950Z,27.73
2022-08-12T19:42:42.662Z,27.66
2022-08-12T19:45:15.666Z,27.60
2022-08-12T19:47:44.698Z,27.54
2022-08-12T19:50:19.661Z,27.50
2022-08-12T19:52:53.077Z,27.44
2022-08-12T19:55:23.323Z,27.40
2022-08-12T19:58:03.101Z,27.35
2022-08-12T20:00:34.429Z,27.28
2022-08-12T20:03:04.835Z,27.24
2022-08-12T20:06:05.216Z,27.20
2022-08-12T20:08:34.764Z,27.13
2022-08-12T20:12:13.268Z,27.08
2022-08-12T20:14:00.702Z,27.01
2022-08-12T20:16:52.580Z,26.94
2022-08-12T20:19:52.928Z,26.87
2022-08-12T20:22:20.345Z,26.79
2022-08-12T20:24:55.127Z,26.74
2022-08-12T20:27:53.668Z,26.69
2022-08-12T20:30:14.222Z,26.64
2022-08-12T20:32:53.918Z,26.59
2022-08-12T20:35:24.329Z,26.58
2022-08-12T20:38:06.659Z,26.54
2022-08-12T20:40:38.382Z,26.51
2022-08-12T20:43:08.561Z,26.50
2022-08-12T20:45:44.665Z,26.45
2022-08-12T20:48:21.633Z,26.41
2022-08-12T20:50:53.791Z,26.39
2022-08-12T20:53:33.083Z,26.36
2022-08-12T20:56:54.334Z,26.31
2022-08-12T20:59:47.873Z,26.28
2022-08-12T21:02:24.145Z,26.18
2022-08-12T21:05:20.054Z,26.15
2022-08-12T21:07:51.526Z,26.08
2022-08-12T21:10:20.744Z,26.00
2022-08-12T21:12:50.758Z,25.90
2022-08-12T21:15:30.223Z,25.86
2022-08-12T21:18:11.593Z,25.77
2022-08-12T21:20:54.237Z,25.74
2022-08-12T21:23:23.635Z,25.73
2022-08-12T21:25:56.102Z,25.67
2022-08-12T21:28:30.885Z,25.64
2022-08-12T21:32:37.616Z,25.59
2022-08-12T21:34:08.145Z,25.53
2022-08-12T21:36:48.151Z,25.46
2022-08-12T21:39:20.736Z,25.39
2022-08-12T21:41:51.924Z,25.35
2022-08-12T21:44:24.630Z,25.30
2022-08-12T21:47:20.404Z,25.24
2022-08-12T21:50:04.086Z,25.18
2022-08-12T21:52:41.880Z,25.12
2022-08-12T21:55:17.830Z,25.05
2022-08-12T21:57:53.241Z,25.03
2022-08-12T22:00:31.798Z,25.00
2022-08-12T22:04:01.365Z,24.96
2022-08-12T22:06:20.342Z,24.90
2022-08-12T22:09:02.221Z,24.86
2022-08-12T22:11:42.379Z,24.81
2022-08-12T22:14:21.282Z,24.74
2022-08-12T22:16:50.729Z,24.72
2022-08-12T22:19:19.751Z,24.69
2022-08-12T22:21:53.354Z,24.65
2022-08-12T22:24:26.665Z,24.59
2022-08-12T22:26:56.485Z,24.53
2022-08-12T22:29:42.383Z,24.47
2022-08-12T22:32:11.366Z,24.43
2022-08-12T22:34:40.208Z,24.41
2022-08-12T22:37:19.831Z,24.39
2022-08-12T22:39:49.638Z,24.31
2022-08-12T22:42:37.271Z,24.27
2022-08-12T22:45:24.842Z,24.21
2022-08-12T22:47:56.429Z,24.15
2022-08-12T22:50:28.508Z,24.09
2022-08-12T22:53:15.165Z,24.03
2022-08-12T22:55:59.699Z,23.97
2022-08-12T22:58:35.230Z,23.94
2022-08-12T23:01:03.649Z,23.91
2022-08-12T23:03:49.409Z,23.87
2022-08-12T23:06:19.720Z,23.80
2022-08-12T23:08:48.551Z,23.74
2022-08-12T23:11:23.986Z,23.71
2022-08-12T23:13:56.365Z,23.65
2022-08-12T23:16:31.134Z,23.59
2022-08-12T23:19:09.939Z,23.55
2022-08-12T23:22:05.499Z,23.52
2022-08-12T23:24:41.059Z,23.48
2022-08-12T23:27:50.428Z,23.47
2022-08-12T23:30:24.603Z,23.42
2022-08-12T23:32:54.753Z,23.36
2022-08-12T23:35:45.297Z,23.29
2022-08-12T23:38:24.639Z,23.25
2022-08-12T23:41:00.827Z,23.23
2022-08-12T23:43:40.071Z,23.19
2022-08-12T23:46:09.875Z,23.14
2022-08-12T23:48:38.430Z,23.09
2022-08-12T23:51:22.027Z,23.06
2022-08-12T23:53:53.545Z,23.01
2022-08-12T23:56:24.107Z,22.97
2022-08-12T23:58:55.177Z,22.95
